createdAt,value
2018-10-02T00:00:24.692Z,1007.32
2018-10-02T00:01:25.410Z,1007.37
2018-10-02T00:02:24.652Z,1007.34
2018-10-02T00:03:24.597Z,1007.31
2018-10-02T00:04:24.565Z,1007.32
2018-10-02T00:05:24.537Z,1007.45
2018-10-02T00:06:24.498Z,1007.33
2018-10-02T00:07:24.478Z,1007.30
2018-10-02T00:08:24.455Z,1007.30
2018-10-02T00:09:24.403Z,1007.27
2018-10-02T00:10:24.415Z,1007.32
2018-10-02T00:11:24.386Z,1007.26
2018-10-02T00:12:24.360Z,1007.28
2018-10-02T00:14:24.288Z,1007.23
2018-10-02T00:15:24.212Z,1007.30
2018-10-02T00:16:24.177Z,1007.29
2018-10-02T00:17:24.233Z,1007.28
2018-10-02T00:18:24.204Z,1007.33
2018-10-02T00:19:24.103Z,1007.35
2018-10-02T00:20:24.054Z,1007.29
2018-10-02T00:21:24.030Z,1007.28
2018-10-02T00:22:24.049Z,1007.28
2018-10-02T00:23:24.062Z,1007.25
2018-10-02T00:24:23.918Z,1007.20
2018-10-02T00:25:23.965Z,1007.27
2018-10-02T00:26:23.852Z,1007.25
2018-10-02T00:27:23.989Z,1007.32
2018-10-02T00:28:23.786Z,1007.19
2018-10-02T00:29:23.755Z,1007.25
2018-10-02T00:30:23.791Z,1007.21
2018-10-02T00:31:23.740Z,1007.27
2018-10-02T00:32:23.880Z,1007.29
2018-10-02T00:33:23.625Z,1007.31
2018-10-02T00:34:23.631Z,1007.37
2018-10-02T00:35:23.561Z,1007.39
2018-10-02T00:36:23.570Z,1007.30
2018-10-02T00:37:23.497Z,1007.36
2018-10-02T00:38:23.461Z,1007.33
2018-10-02T00:39:23.478Z,1007.31
2018-10-02T00:40:23.400Z,1007.41
2018-10-02T00:41:23.456Z,1007.38
2018-10-02T00:42:23.334Z,1007.35
2018-10-02T00:43:23.303Z,1007.47
2018-10-02T00:44:23.902Z,1007.37
2018-10-02T00:45:23.302Z,1007.34
2018-10-02T00:46:23.206Z,1007.36
2018-10-02T00:47:23.273Z,1007.40
2018-10-02T00:48:23.141Z,1007.43
2018-10-02T00:49:23.108Z,1007.48
2018-10-02T00:50:23.075Z,1007.39
2018-10-02T00:51:23.167Z,1007.49
2018-10-02T00:52:23.011Z,1007.44
2018-10-02T00:53:22.978Z,1007.43
2018-10-02T00:54:22.944Z,1007.49
2018-10-02T00:55:22.917Z,1007.41
2018-10-02T00:56:22.934Z,1007.45
2018-10-02T00:57:23.070Z,1007.41
2018-10-02T00:58:22.975Z,1007.42
2018-10-02T00:59:22.785Z,1007.43
2018-10-02T01:00:22.751Z,1007.45
2018-10-02T01:01:22.748Z,1007.44
2018-10-02T01:02:22.686Z,1007.49
2018-10-02T01:03:22.705Z,1007.50
2018-10-02T01:04:22.623Z,1007.51
2018-10-02T01:05:22.666Z,1007.51
2018-10-02T01:06:22.553Z,1007.58
2018-10-02T01:07:22.525Z,1007.53
2018-10-02T01:08:22.493Z,1007.52
2018-10-02T01:09:22.540Z,1007.57
2018-10-02T01:10:22.426Z,1007.57
2018-10-02T01:11:22.396Z,1007.60
2018-10-02T01:12:22.431Z,1007.59
2018-10-02T01:13:22.340Z,1007.59
2018-10-02T01:14:22.304Z,1007.58
2018-10-02T01:15:22.270Z,1007.57
2018-10-02T01:16:22.272Z,1007.58
2018-10-02T01:17:22.228Z,1007.57
2018-10-02T01:18:22.934Z,1007.56
2018-10-02T01:19:22.172Z,1007.57
2018-10-02T01:20:22.116Z,1007.59
2018-10-02T01:21:22.071Z,1007.60
2018-10-02T01:22:22.039Z,1007.63
2018-10-02T01:23:22.005Z,1007.59
2018-10-02T01:24:21.976Z,1007.60
2018-10-02T01:25:21.942Z,1007.55
2018-10-02T01:26:21.909Z,1007.61
2018-10-02T01:27:21.915Z,1007.55
2018-10-02T01:28:21.844Z,1007.58
2018-10-02T01:29:21.852Z,1007.50
2018-10-02T01:30:21.784Z,1007.57
2018-10-02T01:31:21.742Z,1007.57
2018-10-02T01:32:21.777Z,1007.53
2018-10-02T01:33:21.705Z,1007.53
2018-10-02T01:34:21.649Z,1007.49
2018-10-02T01:35:21.705Z,1007.53
2018-10-02T01:36:21.585Z,1007.56
2018-10-02T01:37:21.563Z,1007.54
2018-10-02T01:38:21.519Z,1007.60
2018-10-02T01:39:21.504Z,1007.54
2018-10-02T01:40:21.466Z,1007.54
2018-10-02T01:41:21.468Z,1007.49
2018-10-02T01:42:21.391Z,1007.50
2018-10-02T01:43:21.359Z,1007.49
2018-10-02T01:44:21.327Z,1007.46
2018-10-02T01:45:21.338Z,1007.47
2018-10-02T01:46:21.259Z,1007.42
2018-10-02T01:47:21.285Z,1007.46
2018-10-02T01:48:21.207Z,1007.47
2018-10-02T01:49:21.257Z,1007.44
2018-10-02T01:50:21.148Z,1007.48
2018-10-02T01:51:21.101Z,1007.52
2018-10-02T01:52:21.065Z,1007.51
2018-10-02T01:53:21.033Z,1007.47
2018-10-02T01:54:21.088Z,1007.47
2018-10-02T01:55:20.973Z,1007.47
2018-10-02T01:56:20.938Z,1007.50
2018-10-02T01:57:20.902Z,1007.46
2018-10-02T01:58:20.953Z,1007.43
2018-10-02T01:59:20.860Z,1007.47
2018-10-02T02:00:20.864Z,1007.49
2018-10-02T02:01:20.773Z,1007.41
2018-10-02T02:02:20.761Z,1007.46
2018-10-02T02:03:20.708Z,1007.44
2018-10-02T02:04:20.676Z,1007.40
2018-10-02T02:05:20.646Z,1007.39
2018-10-02T02:06:20.666Z,1007.39
2018-10-02T02:07:20.617Z,1007.39
2018-10-02T02:08:20.546Z,1007.42
2018-10-02T02:09:20.536Z,1007.40
2018-10-02T02:10:20.549Z,1007.43
2018-10-02T02:11:20.448Z,1007.36
2018-10-02T02:12:20.417Z,1007.34
2018-10-02T02:13:20.385Z,1007.34
2018-10-02T02:14:20.395Z,1007.30
2018-10-02T02:15:20.361Z,1007.35
2018-10-02T02:17:20.252Z,1007.32
2018-10-02T02:18:20.221Z,1007.35
2018-10-02T02:19:20.278Z,1007.31
2018-10-02T02:20:20.157Z,1007.25
2018-10-02T02:21:20.125Z,1007.31
2018-10-02T02:22:20.090Z,1007.34
2018-10-02T02:23:20.058Z,1007.30
2018-10-02T02:24:20.147Z,1007.27
2018-10-02T02:25:20.003Z,1007.29
2018-10-02T02:26:19.959Z,1007.30
2018-10-02T02:27:19.946Z,1007.31
2018-10-02T02:28:19.892Z,1007.27
2018-10-02T02:29:19.863Z,1007.30
2018-10-02T02:30:20.507Z,1007.31
2018-10-02T02:31:19.861Z,1007.28
2018-10-02T02:32:19.767Z,1007.31
2018-10-02T02:33:19.735Z,1007.33
2018-10-02T02:34:19.700Z,1007.31
2018-10-02T02:35:19.667Z,1007.32
2018-10-02T02:36:19.635Z,1007.31
2018-10-02T02:37:19.627Z,1007.29
2018-10-02T02:38:19.571Z,1007.27
2018-10-02T02:39:19.538Z,1007.25
2018-10-02T02:41:19.473Z,1007.21
2018-10-02T02:42:19.440Z,1007.32
2018-10-02T02:43:19.408Z,1007.27
2018-10-02T02:44:19.378Z,1007.25
2018-10-02T02:45:19.395Z,1007.28
2018-10-02T02:46:19.313Z,1007.25
2018-10-02T02:48:19.253Z,1007.23
2018-10-02T02:49:19.223Z,1007.22
2018-10-02T02:50:19.310Z,1007.25
2018-10-02T02:51:19.215Z,1007.22
2018-10-02T02:52:19.116Z,1007.24
2018-10-02T02:53:19.084Z,1007.19
2018-10-02T02:54:19.064Z,1007.20
2018-10-02T02:55:19.020Z,1007.22
2018-10-02T02:56:19.035Z,1007.27
2018-10-02T02:57:18.954Z,1007.27
2018-10-02T02:58:18.932Z,1007.26
2018-10-02T02:59:19.079Z,1007.30
2018-10-02T03:00:18.859Z,1007.25
2018-10-02T03:01:18.824Z,1007.29
2018-10-02T03:02:18.792Z,1007.25
2018-10-02T03:03:18.815Z,1007.27
2018-10-02T03:04:18.729Z,1007.21
2018-10-02T03:06:18.663Z,1007.22
2018-10-02T03:07:18.683Z,1007.25
2018-10-02T03:08:18.600Z,1007.28
2018-10-02T03:09:18.566Z,1007.26
2018-10-02T03:10:18.677Z,1007.25
2018-10-02T03:11:18.498Z,1007.24
2018-10-02T03:12:18.552Z,1007.21
2018-10-02T03:13:18.440Z,1007.22
2018-10-02T03:14:18.406Z,1007.19
2018-10-02T03:15:18.471Z,1007.17
2018-10-02T03:16:18.339Z,1007.22
2018-10-02T03:17:18.308Z,1007.17
2018-10-02T03:18:18.418Z,1007.20
2018-10-02T03:19:18.241Z,1007.16
2018-10-02T03:20:18.210Z,1007.21
2018-10-02T03:21:18.214Z,1007.13
2018-10-02T03:22:18.146Z,1007.15
2018-10-02T03:23:18.113Z,1007.15
2018-10-02T03:24:18.080Z,1007.16
2018-10-02T03:25:18.047Z,1007.17
2018-10-02T03:27:17.983Z,1007.22
2018-10-02T03:28:17.951Z,1007.26
2018-10-02T03:29:17.918Z,1007.28
2018-10-02T03:30:18.456Z,1007.27
2018-10-02T03:31:17.853Z,1007.29
2018-10-02T03:32:17.903Z,1007.33
2018-10-02T03:33:17.789Z,1007.33
2018-10-02T03:34:17.758Z,1007.35
2018-10-02T03:35:17.724Z,1007.35
2018-10-02T03:36:17.698Z,1007.34
2018-10-02T03:37:17.721Z,1007.25
2018-10-02T03:38:17.662Z,1007.29
2018-10-02T03:39:17.594Z,1007.30
2018-10-02T03:40:17.659Z,1007.26
2018-10-02T03:41:17.581Z,1007.27
2018-10-02T03:42:17.499Z,1007.27
2018-10-02T03:43:17.467Z,1007.31
2018-10-02T03:44:17.433Z,1007.31
2018-10-02T03:45:17.398Z,1007.30
2018-10-02T03:46:17.411Z,1007.30
2018-10-02T03:47:17.333Z,1007.23
2018-10-02T03:48:17.303Z,1007.28
2018-10-02T03:49:17.269Z,1007.23
2018-10-02T03:50:17.236Z,1007.22
2018-10-02T03:51:17.202Z,1007.25
2018-10-02T03:52:17.230Z,1007.24
2018-10-02T03:53:17.138Z,1007.24
2018-10-02T03:54:17.291Z,1007.25
2018-10-02T03:55:17.073Z,1007.27
2018-10-02T03:56:17.096Z,1007.21
2018-10-02T03:57:17.045Z,1007.22
2018-10-02T03:58:16.971Z,1007.22
2018-10-02T03:59:16.987Z,1007.24
2018-10-02T04:00:16.983Z,1007.24
2018-10-02T04:01:16.922Z,1007.19
2018-10-02T04:02:16.883Z,1007.15
2018-10-02T04:03:16.867Z,1007.16
2018-10-02T04:04:16.830Z,1007.16
2018-10-02T04:05:16.746Z,1007.18
2018-10-02T04:06:16.787Z,1007.12
2018-10-02T04:07:16.684Z,1007.18
2018-10-02T04:08:16.700Z,1007.14
2018-10-02T04:09:16.617Z,1007.14
2018-10-02T04:10:16.649Z,1007.17
2018-10-02T04:11:17.427Z,1007.18
2018-10-02T04:12:16.532Z,1007.15
2018-10-02T04:13:16.508Z,1007.21
2018-10-02T04:14:16.458Z,1007.20
2018-10-02T04:15:16.421Z,1007.23
2018-10-02T04:16:16.446Z,1007.17
2018-10-02T04:17:16.403Z,1007.18
2018-10-02T04:18:16.324Z,1007.18
2018-10-02T04:19:16.359Z,1007.16
2018-10-02T04:20:16.300Z,1007.15
2018-10-02T04:21:16.251Z,1007.12
2018-10-02T04:22:16.262Z,1007.14
2018-10-02T04:23:16.161Z,1007.17
2018-10-02T04:24:16.153Z,1007.17
2018-10-02T04:25:16.096Z,1007.14
2018-10-02T04:26:16.061Z,1007.15
2018-10-02T04:27:16.030Z,1007.12
2018-10-02T04:28:16.028Z,1007.17
2018-10-02T04:29:16.019Z,1007.13
2018-10-02T04:30:15.931Z,1007.10
2018-10-02T04:31:15.899Z,1007.14
2018-10-02T04:32:15.895Z,1007.14
2018-10-02T04:33:15.834Z,1007.17
2018-10-02T04:34:15.928Z,1007.16
2018-10-02T04:35:15.769Z,1007.12
2018-10-02T04:36:15.743Z,1007.17
2018-10-02T04:37:15.766Z,1007.18
2018-10-02T04:38:15.673Z,1007.26
2018-10-02T04:39:15.685Z,1007.14
2018-10-02T04:41:15.573Z,1007.23
2018-10-02T04:42:15.543Z,1007.17
2018-10-02T04:43:15.591Z,1007.18
2018-10-02T04:44:15.477Z,1007.18
2018-10-02T04:45:15.470Z,1007.16
2018-10-02T04:46:15.409Z,1007.13
2018-10-02T04:47:15.374Z,1007.18
2018-10-02T04:48:15.433Z,1007.14
2018-10-02T04:50:15.933Z,1007.20
2018-10-02T04:51:15.307Z,1007.19
2018-10-02T04:52:15.222Z,1007.17
2018-10-02T04:53:15.185Z,1007.16
2018-10-02T04:54:15.186Z,1007.19
2018-10-02T04:55:15.115Z,1007.17
2018-10-02T04:56:15.119Z,1007.15
2018-10-02T04:57:15.051Z,1007.13
2018-10-02T04:58:15.081Z,1007.15
2018-10-02T04:59:14.982Z,1007.14
2018-10-02T05:00:22.075Z,1007.16
2018-10-02T05:02:08.669Z,1007.08
2018-10-02T05:03:08.549Z,1007.07
2018-10-02T05:04:08.548Z,1007.08
2018-10-02T05:06:08.410Z,1007.14
2018-10-02T05:07:09.349Z,1007.18
2018-10-02T05:08:08.354Z,1007.26
2018-10-02T05:09:08.313Z,1007.14
2018-10-02T05:10:08.279Z,1007.15
2018-10-02T05:11:08.291Z,1007.20
2018-10-02T05:12:08.214Z,1007.22
2018-10-02T05:13:08.184Z,1007.24
2018-10-02T05:14:08.192Z,1007.24
2018-10-02T05:15:08.200Z,1007.28
2018-10-02T05:16:08.151Z,1007.26
2018-10-02T05:17:08.048Z,1007.29
2018-10-02T05:18:08.137Z,1007.29
2018-10-02T05:19:08.040Z,1007.21
2018-10-02T05:20:07.951Z,1007.20
2018-10-02T05:21:07.934Z,1007.23
2018-10-02T05:23:07.900Z,1007.25
2018-10-02T05:24:07.822Z,1007.28
2018-10-02T05:25:07.809Z,1007.29
2018-10-02T05:26:07.760Z,1007.32
2018-10-02T05:27:07.748Z,1007.34
2018-10-02T05:28:07.779Z,1007.38
2018-10-02T05:29:07.657Z,1007.36
2018-10-02T05:30:07.676Z,1007.39
2018-10-02T05:31:07.684Z,1007.41
2018-10-02T05:32:07.731Z,1007.42
2018-10-02T05:33:07.526Z,1007.36
2018-10-02T05:34:07.608Z,1007.36
2018-10-02T05:35:07.541Z,1007.40
2018-10-02T05:37:07.394Z,1007.31
2018-10-02T05:38:07.368Z,1007.37
2018-10-02T05:39:07.325Z,1007.34
2018-10-02T05:40:07.332Z,1007.34
2018-10-02T05:41:07.266Z,1007.34
2018-10-02T05:42:07.250Z,1007.32
2018-10-02T05:43:07.209Z,1007.29
2018-10-02T05:44:07.168Z,1007.33
2018-10-02T05:45:07.190Z,1007.41
2018-10-02T05:46:07.112Z,1007.42
2018-10-02T05:47:15.688Z,1007.39
2018-10-02T05:49:13.579Z,1007.39
2018-10-02T05:52:06.250Z,1007.35
2018-10-02T05:53:06.126Z,1007.36
2018-10-02T05:54:59.976Z,1007.39
2018-10-02T05:56:00.584Z,1007.35
2018-10-02T05:57:52.722Z,1007.36
2018-10-02T05:58:52.747Z,1007.39
2018-10-02T06:00:45.833Z,1007.35
2018-10-02T06:01:45.768Z,1007.34
2018-10-02T06:03:38.889Z,1007.26
2018-10-02T06:04:38.935Z,1007.29
2018-10-02T06:05:38.874Z,1007.26
2018-10-02T06:06:38.815Z,1007.32
2018-10-02T06:07:38.792Z,1007.23
2018-10-02T06:08:38.703Z,1007.19
2018-10-02T06:09:38.671Z,1007.16
2018-10-02T06:10:38.641Z,1007.15
2018-10-02T06:11:38.733Z,1007.14
2018-10-02T06:12:38.576Z,1007.14
2018-10-02T06:13:38.558Z,1007.12
2018-10-02T06:14:38.550Z,1007.17
2018-10-02T06:15:38.484Z,1007.10
2018-10-02T06:16:38.451Z,1007.15
2018-10-02T06:17:38.418Z,1007.08
2018-10-02T06:18:38.426Z,1007.10
2018-10-02T06:19:38.355Z,1007.17
2018-10-02T06:20:38.322Z,1007.17
2018-10-02T06:21:38.400Z,1007.13
2018-10-02T06:22:38.269Z,1007.11
2018-10-02T06:23:38.230Z,1007.11
2018-10-02T06:24:38.265Z,1007.14
2018-10-02T06:25:39.669Z,1007.16
2018-10-02T06:26:38.131Z,1007.17
2018-10-02T06:27:38.111Z,1007.19
2018-10-02T06:28:38.119Z,1007.12
2018-10-02T06:29:38.038Z,1007.14
2018-10-02T06:31:37.977Z,1007.15
2018-10-02T06:32:37.969Z,1007.12
2018-10-02T06:33:37.920Z,1007.17
2018-10-02T06:34:37.883Z,1007.14
2018-10-02T06:35:37.908Z,1007.18
2018-10-02T06:36:37.908Z,1007.16
2018-10-02T06:37:37.788Z,1007.11
2018-10-02T06:38:37.941Z,1007.15
2018-10-02T06:39:37.764Z,1007.09
2018-10-02T06:40:37.700Z,1007.08
2018-10-02T06:41:37.749Z,1007.10
2018-10-02T06:42:37.707Z,1007.12
2018-10-02T06:43:37.702Z,1007.10
2018-10-02T06:44:37.633Z,1007.14
2018-10-02T06:45:37.536Z,1007.16
2018-10-02T06:46:37.505Z,1007.13
2018-10-02T06:47:37.477Z,1007.14
2018-10-02T06:48:37.494Z,1007.12
2018-10-02T06:49:37.421Z,1007.12
2018-10-02T06:50:37.444Z,1007.09
2018-10-02T06:51:37.450Z,1007.16
2018-10-02T06:52:37.671Z,1007.15
2018-10-02T06:53:37.285Z,1007.13
2018-10-02T06:54:37.256Z,1007.14
2018-10-02T06:55:37.265Z,1007.16
2018-10-02T06:56:37.252Z,1007.15
2018-10-02T06:57:37.162Z,1007.12
2018-10-02T06:58:37.129Z,1007.09
2018-10-02T06:59:37.101Z,1007.05
2018-10-02T07:00:37.127Z,1007.06
2018-10-02T07:01:37.038Z,1007.05
2018-10-02T07:02:37.028Z,1007.03
2018-10-02T07:03:36.987Z,1007.06
2018-10-02T07:04:36.976Z,1007.13
2018-10-02T07:05:36.942Z,1007.12
2018-10-02T07:06:36.970Z,1007.08
2018-10-02T07:07:36.849Z,1007.07
2018-10-02T07:08:36.827Z,1007.07
2018-10-02T07:09:36.787Z,1007.05
2018-10-02T07:10:36.758Z,1007.07
2018-10-02T07:11:36.791Z,1007.05
2018-10-02T07:12:36.770Z,1007.03
2018-10-02T07:13:36.663Z,1007.01
2018-10-02T07:14:36.714Z,1007.01
2018-10-02T07:15:36.606Z,1006.97
2018-10-02T07:16:36.657Z,1006.97
2018-10-02T07:17:36.598Z,1006.94
2018-10-02T07:18:36.515Z,1006.95
2018-10-02T07:19:36.479Z,1006.90
2018-10-02T07:20:36.513Z,1006.91
2018-10-02T07:21:36.451Z,1006.88
2018-10-02T07:22:36.385Z,1006.89
2018-10-02T07:23:36.377Z,1006.87
2018-10-02T07:24:36.324Z,1006.90
2018-10-02T07:25:36.294Z,1006.89
2018-10-02T07:26:36.339Z,1006.87
2018-10-02T07:27:36.327Z,1006.79
2018-10-02T07:28:36.200Z,1006.80
2018-10-02T07:29:36.171Z,1006.83
2018-10-02T07:30:36.182Z,1006.74
2018-10-02T07:31:36.109Z,1006.80
2018-10-02T07:32:36.192Z,1006.75
2018-10-02T07:34:36.075Z,1006.72
2018-10-02T07:35:36.012Z,1006.68
2018-10-02T07:36:36.072Z,1006.72
2018-10-02T07:37:35.995Z,1006.72
2018-10-02T07:38:35.942Z,1006.65
2018-10-02T07:39:35.865Z,1006.63
2018-10-02T07:40:35.859Z,1006.65
2018-10-02T07:41:35.870Z,1006.57
2018-10-02T07:42:35.773Z,1006.59
2018-10-02T07:43:35.752Z,1006.59
2018-10-02T07:44:35.771Z,1006.57
2018-10-02T07:45:36.186Z,1006.61
2018-10-02T07:46:35.661Z,1006.63
2018-10-02T07:47:35.713Z,1006.64
2018-10-02T07:48:35.718Z,1006.65
2018-10-02T07:49:35.565Z,1006.68
2018-10-02T07:50:35.559Z,1006.64
2018-10-02T07:51:35.496Z,1006.68
2018-10-02T07:52:35.463Z,1006.59
2018-10-02T07:53:35.441Z,1006.60
2018-10-02T07:54:35.414Z,1006.51
2018-10-02T07:55:35.452Z,1006.55
2018-10-02T07:56:35.411Z,1006.51
2018-10-02T07:57:35.313Z,1006.56
2018-10-02T07:58:35.279Z,1006.63
2018-10-02T07:59:35.293Z,1006.60
2018-10-02T08:00:37.176Z,1006.57
2018-10-02T08:01:35.194Z,1006.63
2018-10-02T08:02:35.182Z,1006.64
2018-10-02T08:03:35.130Z,1006.66
2018-10-02T08:04:35.096Z,1006.69
2018-10-02T08:05:35.093Z,1006.69
2018-10-02T08:06:35.036Z,1006.63
2018-10-02T08:07:35.006Z,1006.64
2018-10-02T08:08:34.983Z,1006.58
2018-10-02T08:09:35.078Z,1006.66
2018-10-02T08:10:34.921Z,1006.66
2018-10-02T08:11:34.938Z,1006.64
2018-10-02T08:12:34.851Z,1006.69
2018-10-02T08:13:34.854Z,1006.63
2018-10-02T08:14:34.835Z,1006.62
2018-10-02T08:15:34.763Z,1006.63
2018-10-02T08:16:34.729Z,1006.66
2018-10-02T08:17:34.779Z,1006.62
2018-10-02T08:18:34.666Z,1006.61
2018-10-02T08:19:34.637Z,1006.61
2018-10-02T08:20:34.683Z,1006.61
2018-10-02T08:21:34.577Z,1006.63
2018-10-02T08:22:34.545Z,1006.66
2018-10-02T08:23:34.575Z,1006.66
2018-10-02T08:24:34.482Z,1006.61
2018-10-02T08:25:34.461Z,1006.66
2018-10-02T08:26:34.448Z,1006.60
2018-10-02T08:27:34.394Z,1006.65
2018-10-02T08:28:34.359Z,1006.56
2018-10-02T08:29:34.384Z,1006.58
2018-10-02T08:30:34.300Z,1006.57
2018-10-02T08:31:34.269Z,1006.56
2018-10-02T08:32:34.281Z,1006.54
2018-10-02T08:33:34.208Z,1006.56
2018-10-02T08:34:34.235Z,1006.60
2018-10-02T08:35:34.216Z,1006.61
2018-10-02T08:36:34.128Z,1006.55
2018-10-02T08:37:34.086Z,1006.55
2018-10-02T08:38:34.111Z,1006.56
2018-10-02T08:39:34.026Z,1006.49
2018-10-02T08:40:34.002Z,1006.58
2018-10-02T08:41:33.963Z,1006.43
2018-10-02T08:42:33.939Z,1006.46
2018-10-02T08:43:33.983Z,1006.48
2018-10-02T08:44:33.896Z,1006.48
2018-10-02T08:45:33.842Z,1006.43
2018-10-02T08:46:34.688Z,1006.43
2018-10-02T08:47:33.858Z,1006.34
2018-10-02T08:48:34.690Z,1006.36
2018-10-02T08:49:33.722Z,1006.31
2018-10-02T08:50:33.750Z,1006.32
2018-10-02T08:51:33.661Z,1006.28
2018-10-02T08:52:33.630Z,1006.27
2018-10-02T08:53:33.608Z,1006.23
2018-10-02T08:54:33.570Z,1006.26
2018-10-02T08:55:33.538Z,1006.28
2018-10-02T08:56:33.513Z,1006.30
2018-10-02T08:57:33.478Z,1006.32
2018-10-02T08:58:33.450Z,1006.27
2018-10-02T08:59:33.425Z,1006.34
2018-10-02T09:00:33.407Z,1006.21
2018-10-02T09:01:33.358Z,1006.23
2018-10-02T09:02:33.331Z,1006.26
2018-10-02T09:03:33.298Z,1006.14
2018-10-02T09:04:33.267Z,1006.15
2018-10-02T09:05:33.241Z,1006.13
2018-10-02T09:06:33.253Z,1006.17
2018-10-02T09:07:33.175Z,1006.09
2018-10-02T09:08:33.146Z,1006.13
2018-10-02T09:09:33.113Z,1006.02
2018-10-02T09:10:33.691Z,1006.07
2018-10-02T09:11:33.758Z,1006.11
2018-10-02T09:12:33.038Z,1006.09
2018-10-02T09:13:33.071Z,1006.10
2018-10-02T09:14:32.964Z,1006.08
2018-10-02T09:15:33.061Z,1006.09
2018-10-02T09:16:33.004Z,1006.08
2018-10-02T09:17:32.874Z,1006.06
2018-10-02T09:18:32.939Z,1006.09
2018-10-02T09:19:32.814Z,1006.03
2018-10-02T09:20:32.781Z,1005.99
2018-10-02T09:21:32.803Z,1006.07
2018-10-02T09:22:32.724Z,1005.99
2018-10-02T09:23:32.692Z,1005.97
2018-10-02T09:24:32.702Z,1005.98
2018-10-02T09:25:32.631Z,1006.02
2018-10-02T09:26:32.601Z,1006.03
2018-10-02T09:27:32.617Z,1005.97
2018-10-02T09:28:32.640Z,1005.97
2018-10-02T09:29:32.514Z,1006.00
2018-10-02T09:30:32.634Z,1006.00
2018-10-02T09:31:32.459Z,1005.99
2018-10-02T09:32:32.423Z,1006.05
2018-10-02T09:33:32.442Z,1006.02
2018-10-02T09:34:32.364Z,1005.91
2018-10-02T09:35:33.197Z,1005.92
2018-10-02T09:36:33.225Z,1005.93
2018-10-02T09:37:32.306Z,1005.93
2018-10-02T09:38:32.245Z,1005.95
2018-10-02T09:39:32.281Z,1005.89
2018-10-02T09:40:32.187Z,1005.90
2018-10-02T09:41:32.702Z,1005.92
2018-10-02T09:42:32.177Z,1005.90
2018-10-02T09:43:32.220Z,1005.85
2018-10-02T09:44:32.065Z,1005.87
2018-10-02T09:45:32.068Z,1005.88
2018-10-02T09:46:32.005Z,1005.86
2018-10-02T09:47:31.970Z,1005.97
2018-10-02T09:48:31.993Z,1005.96
2018-10-02T09:49:32.702Z,1005.91
2018-10-02T09:50:31.897Z,1005.88
2018-10-02T09:51:33.758Z,1005.84
2018-10-02T09:52:31.825Z,1005.88
2018-10-02T09:53:31.796Z,1005.78
2018-10-02T09:54:31.809Z,1005.74
2018-10-02T09:55:31.742Z,1005.74
2018-10-02T09:56:31.744Z,1005.76
2018-10-02T09:57:31.680Z,1005.63
2018-10-02T09:58:31.689Z,1005.61
2018-10-02T09:59:31.625Z,1005.56
2018-10-02T10:00:31.609Z,1005.63
2018-10-02T10:01:31.560Z,1005.53
2018-10-02T10:02:31.553Z,1005.50
2018-10-02T10:03:31.502Z,1005.52
2018-10-02T10:04:31.474Z,1005.38
2018-10-02T10:05:31.440Z,1005.35
2018-10-02T10:06:31.412Z,1005.35
2018-10-02T10:07:31.384Z,1005.29
2018-10-02T10:08:31.353Z,1005.25
2018-10-02T10:09:31.348Z,1005.28
2018-10-02T10:10:31.319Z,1005.20
2018-10-02T10:11:31.265Z,1005.27
2018-10-02T10:12:31.233Z,1005.10
2018-10-02T10:13:31.207Z,1005.06
2018-10-02T10:14:31.198Z,1005.02
2018-10-02T10:15:31.145Z,1005.04
2018-10-02T10:16:31.130Z,1004.99
2018-10-02T10:17:31.187Z,1004.96
2018-10-02T10:18:31.060Z,1004.99
2018-10-02T10:19:31.029Z,1004.97
2018-10-02T10:20:30.998Z,1004.95
2018-10-02T10:21:30.970Z,1004.85
2018-10-02T10:22:30.971Z,1004.80
2018-10-02T10:23:30.909Z,1004.76
2018-10-02T10:24:30.879Z,1004.72
2018-10-02T10:25:30.852Z,1004.71
2018-10-02T10:26:30.858Z,1004.61
2018-10-02T10:27:30.795Z,1004.64
2018-10-02T10:28:30.791Z,1004.58
2018-10-02T10:29:30.734Z,1004.61
2018-10-02T10:30:30.701Z,1004.58
2018-10-02T10:31:30.673Z,1004.46
2018-10-02T10:32:30.643Z,1004.53
2018-10-02T10:33:30.695Z,1004.42
2018-10-02T10:34:30.611Z,1004.41
2018-10-02T10:35:30.560Z,1004.44
2018-10-02T10:36:30.525Z,1004.42
2018-10-02T10:37:30.494Z,1004.41
2018-10-02T10:38:30.468Z,1004.41
2018-10-02T10:39:30.437Z,1004.37
2018-10-02T10:40:30.448Z,1004.42
2018-10-02T10:41:30.377Z,1004.35
2018-10-02T10:42:30.348Z,1004.43
2018-10-02T10:43:30.322Z,1004.29
2018-10-02T10:44:30.288Z,1004.41
2018-10-02T10:45:30.262Z,1004.24
2018-10-02T10:46:30.252Z,1004.25
2018-10-02T10:47:30.389Z,1004.25
2018-10-02T10:48:30.667Z,1004.17
2018-10-02T10:49:30.221Z,1004.13
2018-10-02T10:51:30.183Z,1004.07
2018-10-02T10:52:31.770Z,1004.19
2018-10-02T10:53:30.770Z,1004.11
2018-10-02T10:54:29.994Z,1004.11
2018-10-02T10:55:29.969Z,1004.13
2018-10-02T10:56:29.966Z,1004.04
2018-10-02T10:57:29.908Z,1004.10
2018-10-02T10:58:29.887Z,1003.99
2018-10-02T10:59:29.853Z,1003.96
2018-10-02T11:00:29.822Z,1003.90
2018-10-02T11:01:29.792Z,1003.94
2018-10-02T11:02:29.762Z,1003.91
2018-10-02T11:03:29.733Z,1003.90
2018-10-02T11:04:29.718Z,1003.83
2018-10-02T11:05:29.674Z,1003.80
2018-10-02T11:06:29.645Z,1003.79
2018-10-02T11:07:30.275Z,1003.80
2018-10-02T11:08:29.587Z,1003.75
2018-10-02T11:09:29.607Z,1003.75
2018-10-02T11:10:29.529Z,1003.64
2018-10-02T11:11:29.497Z,1003.71
2018-10-02T11:12:29.468Z,1003.72
2018-10-02T11:13:29.440Z,1003.65
2018-10-02T11:14:29.411Z,1003.58
2018-10-02T11:15:29.384Z,1003.54
2018-10-02T11:16:29.348Z,1003.45
2018-10-02T11:17:29.322Z,1003.44
2018-10-02T11:18:29.293Z,1003.44
2018-10-02T11:19:29.360Z,1003.33
2018-10-02T11:20:29.236Z,1003.42
2018-10-02T11:21:29.206Z,1003.44
2018-10-02T11:22:29.173Z,1003.42
2018-10-02T11:23:29.143Z,1003.32
2018-10-02T11:24:29.112Z,1003.40
2018-10-02T11:25:30.711Z,1003.34
2018-10-02T11:26:29.061Z,1003.30
2018-10-02T11:27:29.030Z,1003.31
2018-10-02T11:28:28.995Z,1003.19
2018-10-02T11:29:28.966Z,1003.21
2018-10-02T11:30:28.934Z,1003.20
2018-10-02T11:31:28.910Z,1003.17
2018-10-02T11:32:28.879Z,1003.19
2018-10-02T11:33:28.847Z,1003.17
2018-10-02T11:34:28.815Z,1003.08
2018-10-02T11:35:28.810Z,1003.17
2018-10-02T11:36:28.758Z,1003.06
2018-10-02T11:37:28.735Z,1003.11
2018-10-02T11:38:28.696Z,1003.04
2018-10-02T11:39:28.670Z,1003.08
2018-10-02T11:40:28.636Z,1003.07
2018-10-02T11:41:28.607Z,1003.10
2018-10-02T11:42:28.579Z,1003.11
2018-10-02T11:43:28.553Z,1003.00
2018-10-02T11:44:28.588Z,1002.98
2018-10-02T11:45:28.486Z,1003.02
2018-10-02T11:46:28.459Z,1002.90
2018-10-02T11:47:28.431Z,1002.92
2018-10-02T11:48:28.399Z,1002.88
2018-10-02T11:49:28.379Z,1002.83
2018-10-02T11:50:28.541Z,1002.81
2018-10-02T11:51:28.313Z,1002.78
2018-10-02T11:52:29.552Z,1002.86
2018-10-02T11:53:29.052Z,1002.84
2018-10-02T11:54:30.511Z,1002.80
2018-10-02T11:56:28.159Z,1002.84
2018-10-02T11:57:28.217Z,1002.83
2018-10-02T11:58:28.889Z,1002.83
2018-10-02T11:59:28.070Z,1002.86
2018-10-02T12:00:28.768Z,1002.87
2018-10-02T12:01:28.085Z,1002.82
2018-10-02T12:02:29.185Z,1002.75
2018-10-02T12:03:28.055Z,1002.71
2018-10-02T12:04:27.917Z,1002.73
2018-10-02T12:05:28.764Z,1002.59
2018-10-02T12:06:27.855Z,1002.63
2018-10-02T12:07:27.825Z,1002.64
2018-10-02T12:08:27.795Z,1002.60
2018-10-02T12:09:27.777Z,1002.55
2018-10-02T12:10:27.736Z,1002.55
2018-10-02T12:11:27.741Z,1002.45
2018-10-02T12:12:28.539Z,1002.46
2018-10-02T12:13:27.670Z,1002.32
2018-10-02T12:14:27.838Z,1002.48
2018-10-02T12:15:27.687Z,1002.47
2018-10-02T12:16:27.672Z,1002.40
2018-10-02T12:17:27.521Z,1002.33
2018-10-02T12:18:27.492Z,1002.41
2018-10-02T12:19:27.491Z,1002.29
2018-10-02T12:20:27.430Z,1002.32
2018-10-02T12:21:27.892Z,1002.36
2018-10-02T12:22:27.368Z,1002.21
2018-10-02T12:23:27.352Z,1002.26
2018-10-02T12:24:27.308Z,1002.31
2018-10-02T12:25:27.277Z,1002.15
2018-10-02T12:26:27.248Z,1002.18
2018-10-02T12:27:27.218Z,1002.11